Time;durP1;ratioP1;P1;durP2;ratioP2;P2;SDS_P1;SDS_P2;PMS_P1;PMS_P2;Temp;Humidity;BMP_temperature;BMP_pressure;BME280_temperature;BME280_humidity;BME280_pressure;Samples;Min_cycle;Max_cycle;Signal;HPM_P1;HPM_P2
2022/01/20 00:01:59;;;;;;;41.92;3.63;;;;;;;2.11;100.00;102461.03;5019267;28;20124;-44
2022/01/20 00:04:34;;;;;;;36.85;3.55;;;;;;;2.12;100.00;102457.50;5018137;28;20034;-47
2022/01/20 00:20:30;;;;;;;36.63;3.45;;;;;;;2.16;100.00;102458.22;5019156;28;20459;-44
2022/01/20 00:28:17;;;;;;;39.58;3.90;;;;;;;2.45;100.00;102467.47;5017084;28;20037;-43
2022/01/20 00:31:03;;;;;;;32.13;3.55;;;;;;;2.58;100.00;102470.41;4979823;28;20481;-45
2022/01/20 00:38:37;;;;;;;30.90;3.10;;;;;;;2.45;100.00;102483.28;4980296;28;20121;-44
2022/01/20 00:41:03;;;;;;;22.30;2.80;;;;;;;2.46;100.00;102486.78;4976000;28;20026;-43
2022/01/20 00:43:29;;;;;;;30.67;3.03;;;;;;;2.52;100.00;102482.09;4974959;28;20606;-43
2022/01/20 00:45:54;;;;;;;27.77;2.97;;;;;;;2.54;100.00;102476.75;4979735;28;20085;-43
2022/01/20 00:48:21;;;;;;;42.90;4.05;;;;;;;2.55;100.00;102484.59;4978591;28;20636;-44
2022/01/20 00:50:46;;;;;;;44.58;4.35;;;;;;;2.59;100.00;102477.41;4981795;28;20110;-43
2022/01/20 00:53:12;;;;;;;39.75;3.20;;;;;;;2.64;100.00;102488.59;4983417;28;20684;-44
2022/01/20 00:55:38;;;;;;;33.15;3.83;;;;;;;2.66;100.00;102483.25;4983827;28;20186;-43
2022/01/20 00:58:04;;;;;;;47.03;3.80;;;;;;;2.66;100.00;102485.91;4981844;28;20038;-47
2022/01/20 01:00:29;;;;;;;40.63;4.40;;;;;;;2.70;100.00;102484.81;4982508;28;20335;-45
2022/01/20 01:02:56;;;;;;;29.63;3.38;;;;;;;2.73;100.00;102475.00;4983220;28;20034;-48
2022/01/20 01:05:21;;;;;;;31.38;3.05;;;;;;;2.76;100.00;102479.28;4982464;28;20488;-45
2022/01/20 01:07:48;;;;;;;53.20;4.05;;;;;;;2.74;100.00;102479.34;4983839;28;20045;-47
2022/01/20 01:10:29;;;;;;;38.13;3.35;;;;;;;2.73;100.00;102489.97;4983135;28;20038;-46
2022/01/20 01:13:04;;;;;;;32.80;3.22;;;;;;;2.71;100.00;102507.66;4981073;28;20026;-46
2022/01/20 01:15:36;;;;;;;29.13;3.20;;;;;;;2.66;100.00;102515.75;4982837;28;20030;-46
2022/01/20 01:23:33;;;;;;;36.00;2.97;;;;;;;2.55;100.00;102502.22;4982186;28;20042;-45
2022/01/20 01:25:59;;;;;;;36.90;3.38;;;;;;;2.55;100.00;102507.50;4962886;28;20113;-43
2022/01/20 01:28:29;;;;;;;37.47;3.15;;;;;;;2.55;100.00;102504.84;4962718;28;20034;-43
2022/01/20 01:31:30;;;;;;;34.10;2.92;;;;;;;2.57;100.00;102508.28;4983015;28;20132;-46
2022/01/20 01:34:06;;;;;;;28.77;2.97;;;;;;;2.59;100.00;102501.97;4982854;28;20153;-44
2022/01/20 01:36:46;;;;;;;29.27;3.28;;;;;;;2.59;100.00;102491.44;4981904;28;20318;-46
2022/01/20 01:39:12;;;;;;;34.80;2.65;;;;;;;2.59;100.00;102501.13;4981404;28;20507;-47
2022/01/20 01:41:38;;;;;;;35.58;5.18;;;;;;;2.54;100.00;102489.94;4980056;28;20374;-47
2022/01/20 01:44:07;;;;;;;32.92;3.33;;;;;;;2.53;100.00;102496.13;5002085;28;20022;-45
2022/01/20 01:46:33;;;;;;;30.73;2.85;;;;;;;2.50;100.00;102493.66;5001768;28;20030;-43
2022/01/20 01:48:59;;;;;;;19.67;2.15;;;;;;;2.48;100.00;102496.34;5002138;28;20044;-43
2022/01/20 01:51:25;;;;;;;21.08;3.08;;;;;;;2.51;100.00;102495.34;5001329;28;20080;-43
2022/01/20 01:53:51;;;;;;;30.88;3.05;;;;;;;2.53;100.00;102490.84;5002197;28;20117;-46
2022/01/20 01:56:17;;;;;;;37.88;3.72;;;;;;;2.53;100.00;102502.28;4999551;28;20025;-43
2022/01/20 01:58:43;;;;;;;27.30;3.30;;;;;;;2.58;100.00;102499.41;5001411;28;20022;-44
2022/01/20 02:01:08;;;;;;;27.10;2.90;;;;;;;2.65;100.00;102498.25;5001546;28;20072;-43
2022/01/20 02:03:42;;;;;;;26.30;2.92;;;;;;;2.68;100.00;102484.91;5000803;28;20030;-44
2022/01/20 02:08:56;;;;;;;30.00;3.30;;;;;;;2.65;100.00;102500.88;5001857;28;20030;-44
2022/01/20 02:19:33;;;;;;;25.95;2.40;;;;;;;2.77;100.00;102495.03;5001579;28;20103;-45
2022/01/20 02:22:02;;;;;;;25.17;2.80;;;;;;;2.85;100.00;102507.03;5001959;28;20018;-44
2022/01/20 02:24:29;;;;;;;33.30;2.88;;;;;;;2.86;100.00;102508.75;5000843;28;20053;-47
2022/01/20 02:26:55;;;;;;;33.97;3.08;;;;;;;2.88;100.00;102512.16;4998138;28;20440;-46
2022/01/20 02:29:20;;;;;;;31.52;3.30;;;;;;;2.90;100.00;102505.91;5000212;28;20092;-44
2022/01/20 02:31:45;;;;;;;22.98;3.30;;;;;;;2.93;100.00;102510.16;5001053;28;20087;-44
2022/01/20 02:34:13;;;;;;;22.88;2.20;;;;;;;2.96;100.00;102510.88;5000905;28;20037;-44
2022/01/20 02:36:41;;;;;;;29.75;3.72;;;;;;;2.99;100.00;102504.63;5001126;28;20238;-44
2022/01/20 02:44:53;;;;;;;21.98;2.17;;;;;;;2.98;100.00;102485.25;4981829;28;20042;-46
2022/01/20 02:47:30;;;;;;;25.98;2.53;;;;;;;2.97;100.00;102499.41;5000731;28;20436;-42
2022/01/20 02:49:56;;;;;;;18.63;2.00;;;;;;;3.00;100.00;102506.31;5000458;28;20022;-45
2022/01/20 02:52:23;;;;;;;22.75;2.10;;;;;;;3.01;100.00;102497.47;5000137;28;20032;-43
2022/01/20 02:54:50;;;;;;;21.98;2.45;;;;;;;3.02;100.00;102501.84;4999667;28;20507;-43
2022/01/20 02:57:16;;;;;;;20.73;2.22;;;;;;;3.04;100.00;102496.47;5010830;28;20038;-42
2022/01/20 02:59:41;;;;;;;28.20;2.65;;;;;;;3.00;100.00;102498.41;5021330;28;20032;-44
2022/01/20 03:02:08;;;;;;;20.73;1.80;;;;;;;2.97;100.00;102488.84;5020206;28;20025;-45
2022/01/20 03:04:33;;;;;;;24.90;2.03;;;;;;;2.90;100.00;102490.06;5020595;28;20044;-43
2022/01/20 03:06:59;;;;;;;22.65;1.80;;;;;;;2.86;100.00;102492.91;5019578;28;20026;-42
2022/01/20 03:09:24;;;;;;;16.88;2.00;;;;;;;2.84;100.00;102485.06;5001628;28;20017;-45
2022/01/20 03:11:50;;;;;;;17.15;2.05;;;;;;;2.83;100.00;102485.13;5018847;28;20116;-44
2022/01/20 03:14:17;;;;;;;18.23;1.95;;;;;;;2.76;100.00;102487.19;5019680;28;20531;-43
2022/01/20 03:16:44;;;;;;;27.70;2.60;;;;;;;2.71;100.00;102483.91;5019942;28;20130;-43
2022/01/20 03:19:10;;;;;;;25.85;1.35;;;;;;;2.64;100.00;102475.41;5019539;28;20419;-46
2022/01/20 03:21:35;;;;;;;22.77;2.03;;;;;;;2.59;100.00;102469.50;5020404;28;20033;-44
2022/01/20 03:24:00;;;;;;;20.23;2.13;;;;;;;2.60;100.00;102460.66;5020010;28;20033;-44
2022/01/20 03:26:25;;;;;;;21.73;2.20;;;;;;;2.66;100.00;102470.91;5016910;28;20065;-44
2022/01/20 03:28:51;;;;;;;22.05;1.98;;;;;;;2.67;100.00;102467.38;5019839;28;20034;-46
2022/01/20 03:31:16;;;;;;;14.10;1.85;;;;;;;2.72;100.00;102475.94;5019092;28;20374;-43
2022/01/20 03:33:42;;;;;;;17.50;1.55;;;;;;;2.74;100.00;102476.69;5019975;28;20353;-43
2022/01/20 03:36:07;;;;;;;16.25;1.77;;;;;;;2.73;100.00;102468.84;5019963;28;20021;-45
2022/01/20 03:38:32;;;;;;;16.75;1.83;;;;;;;2.73;100.00;102468.84;5019445;28;20030;-45
2022/01/20 03:40:58;;;;;;;20.35;2.50;;;;;;;2.76;100.00;102474.84;5018699;28;20032;-47
2022/01/20 03:43:23;;;;;;;19.98;2.13;;;;;;;2.79;100.00;102473.88;5018508;28;20045;-43
2022/01/20 03:45:51;;;;;;;26.30;2.15;;;;;;;2.83;100.00;102469.28;5019021;28;20255;-43
2022/01/20 03:48:17;;;;;;;24.52;2.78;;;;;;;2.79;100.00;102472.06;5018962;28;20040;-42
2022/01/20 03:51:00;;;;;;;17.17;1.83;;;;;;;2.73;100.00;102479.41;5019736;28;20269;-43
2022/01/20 03:53:35;;;;;;;23.65;1.88;;;;;;;2.67;100.00;102482.34;5018750;28;20021;-45
2022/01/20 03:56:01;;;;;;;26.25;2.00;;;;;;;2.58;100.00;102466.00;5017766;28;20053;-43
2022/01/20 03:58:26;;;;;;;24.60;2.28;;;;;;;2.57;100.00;102472.19;5017925;28;20117;-46
2022/01/20 04:00:52;;;;;;;30.58;2.28;;;;;;;2.53;100.00;102478.53;5019859;28;20029;-44
2022/01/20 04:03:17;;;;;;;26.38;1.90;;;;;;;2.52;100.00;102481.25;5018271;28;20104;-43
2022/01/20 04:06:04;;;;;;;23.27;1.70;;;;;;;2.54;100.00;102476.75;5019018;28;20523;-45
2022/01/20 04:08:31;;;;;;;19.73;1.60;;;;;;;2.60;100.00;102476.50;5018031;28;20049;-46
2022/01/20 04:10:59;;;;;;;24.02;1.92;;;;;;;2.61;100.00;102484.34;5017664;28;20044;-47
2022/01/20 04:13:29;;;;;;;20.38;1.63;;;;;;;2.70;100.00;102484.81;5000245;28;20057;-47
2022/01/20 04:15:55;;;;;;;28.38;1.70;;;;;;;2.72;100.00;102499.66;5019292;28;20055;-43
2022/01/20 04:18:21;;;;;;;17.55;1.80;;;;;;;2.75;100.00;102507.44;5018532;28;20021;-48
2022/01/20 04:20:47;;;;;;;24.70;2.15;;;;;;;2.77;100.00;102510.88;5019373;28;20056;-43
2022/01/20 04:23:13;;;;;;;19.25;2.00;;;;;;;2.82;100.00;102508.03;5018753;28;20021;-45
2022/01/20 04:25:38;;;;;;;27.63;2.30;;;;;;;2.86;100.00;102506.94;5017563;28;20026;-44
2022/01/20 04:28:03;;;;;;;24.45;2.88;;;;;;;2.94;100.00;102522.44;5018103;28;20565;-44
2022/01/20 04:30:29;;;;;;;33.72;2.63;;;;;;;2.93;100.00;102521.56;5017951;28;20499;-44
2022/01/20 04:32:55;;;;;;;32.65;2.78;;;;;;;2.91;100.00;102514.66;5019298;28;20068;-44
2022/01/20 04:35:20;;;;;;;18.55;1.55;;;;;;;2.88;100.00;102515.66;5018587;28;20033;-43
2022/01/20 04:37:51;;;;;;;27.17;2.47;;;;;;;2.90;100.00;102531.41;5000992;28;20026;-45
2022/01/20 04:40:17;;;;;;;25.40;2.40;;;;;;;2.85;100.00;102512.28;5018834;28;20488;-45
2022/01/20 04:42:45;;;;;;;15.95;1.80;;;;;;;2.79;100.00;102509.00;5017656;28;20288;-46
2022/01/20 04:45:15;;;;;;;18.63;2.00;;;;;;;2.74;100.00;102529.47;5018623;28;20037;-44
2022/01/20 04:58:49;;;;;;;21.02;1.88;;;;;;;2.78;100.00;102546.00;5018794;28;20095;-42
2022/01/20 05:01:14;;;;;;;15.75;1.88;;;;;;;2.82;100.00;102550.25;5017330;28;20022;-45
2022/01/20 05:03:39;;;;;;;18.52;1.70;;;;;;;2.84;100.00;102551.03;5017389;28;20063;-46
2022/01/20 05:06:05;;;;;;;15.80;2.05;;;;;;;2.85;100.00;102555.41;5019412;28;20021;-46
2022/01/20 05:08:31;;;;;;;15.73;1.60;;;;;;;2.85;100.00;102552.75;5017684;28;20090;-43
2022/01/20 05:11:00;;;;;;;18.25;1.85;;;;;;;2.87;100.00;102550.91;5017578;28;20154;-46
2022/01/20 05:13:33;;;;;;;17.40;2.03;;;;;;;2.88;100.00;102557.88;5017855;28;20040;-47
2022/01/20 05:15:58;;;;;;;22.23;2.58;;;;;;;2.86;100.00;102550.97;5019104;28;20375;-44
2022/01/20 05:18:23;;;;;;;23.63;1.88;;;;;;;2.88;100.00;102560.50;5016967;28;20025;-43
2022/01/20 05:20:49;;;;;;;22.35;2.30;;;;;;;2.90;100.00;102565.72;5019115;28;20365;-46
2022/01/20 05:23:14;;;;;;;23.23;2.10;;;;;;;2.91;100.00;102568.28;5017934;28;20041;-45
2022/01/20 05:25:39;;;;;;;22.55;2.00;;;;;;;2.93;100.00;102578.78;5017791;28;20030;-43
2022/01/20 05:28:05;;;;;;;28.08;2.53;;;;;;;2.93;100.00;102590.19;5018170;28;20091;-49
2022/01/20 05:30:30;;;;;;;26.80;2.53;;;;;;;2.93;100.00;102584.91;5017775;28;20045;-45
2022/01/20 05:32:55;;;;;;;17.83;2.28;;;;;;;2.96;100.00;102583.94;5018872;28;20215;-44
2022/01/20 05:35:21;;;;;;;14.48;2.30;;;;;;;2.91;100.00;102589.41;5017895;28;20072;-44
2022/01/20 05:37:46;;;;;;;22.33;2.35;;;;;;;2.76;100.00;102596.22;5017895;28;20107;-43
2022/01/20 05:40:11;;;;;;;18.98;2.30;;;;;;;2.74;100.00;102607.78;5013550;28;20491;-43
2022/01/20 05:42:36;;;;;;;16.88;2.10;;;;;;;2.72;100.00;102606.97;5017095;28;20033;-43
2022/01/20 05:45:04;;;;;;;12.32;2.17;;;;;;;2.71;100.00;102629.00;5014682;28;20100;-43
2022/01/20 05:47:31;;;;;;;18.98;2.22;;;;;;;2.74;100.00;102632.38;5001574;28;20107;-45
2022/01/20 05:49:56;;;;;;;27.48;2.50;;;;;;;2.78;100.00;102636.59;5003737;28;20053;-44
2022/01/20 05:52:22;;;;;;;14.30;2.17;;;;;;;2.84;100.00;102635.47;5006599;28;20063;-42
2022/01/20 05:54:47;;;;;;;19.70;2.00;;;;;;;2.79;100.00;102635.66;5002135;28;20037;-44
2022/01/20 05:57:13;;;;;;;19.88;1.98;;;;;;;2.78;100.00;102628.69;5003599;28;20030;-43
2022/01/20 05:59:38;;;;;;;21.52;2.35;;;;;;;2.78;100.00;102628.69;4992977;28;20034;-44
2022/01/20 06:02:14;;;;;;;20.73;2.22;;;;;;;2.82;100.00;102631.16;5012780;28;20168;-46
2022/01/20 06:04:39;;;;;;;24.77;1.90;;;;;;;2.84;100.00;102639.91;5015988;28;20407;-44
2022/01/20 06:07:05;;;;;;;24.05;2.22;;;;;;;2.83;100.00;102635.53;5017709;28;20029;-44
2022/01/20 06:09:30;;;;;;;22.65;2.75;;;;;;;2.82;100.00;102632.03;5019175;28;20099;-45
2022/01/20 06:11:55;;;;;;;22.73;2.60;;;;;;;2.84;100.00;102639.91;5018215;28;20113;-44
2022/01/20 06:14:20;;;;;;;20.45;2.40;;;;;;;2.81;100.00;102643.50;5018403;28;20472;-44
2022/01/20 06:16:46;;;;;;;20.25;2.15;;;;;;;2.80;100.00;102647.94;5004816;28;20048;-44
2022/01/20 06:19:11;;;;;;;24.83;2.35;;;;;;;2.79;100.00;102648.00;5018741;28;20025;-43
2022/01/20 06:21:38;;;;;;;26.25;3.05;;;;;;;2.81;100.00;102651.44;5017374;28;20036;-46
2022/01/20 06:24:03;;;;;;;19.35;2.38;;;;;;;2.84;100.00;102663.66;5003542;28;20087;-47
2022/01/20 06:26:28;;;;;;;26.80;2.95;;;;;;;2.84;100.00;102663.66;4999287;28;20479;-42
2022/01/20 06:28:54;;;;;;;31.52;3.28;;;;;;;2.82;100.00;102668.09;5001918;28;20046;-44
2022/01/20 06:31:19;;;;;;;27.13;2.50;;;;;;;2.80;100.00;102673.44;5012625;28;20265;-44
2022/01/20 06:33:44;;;;;;;22.48;2.80;;;;;;;2.77;100.00;102671.81;5020001;28;20523;-44
2022/01/20 06:36:10;;;;;;;27.05;2.30;;;;;;;2.78;100.00;102675.28;5020405;28;20460;-44
2022/01/20 06:38:35;;;;;;;23.27;2.85;;;;;;;2.77;100.00;102681.53;5010887;28;20488;-45
2022/01/20 06:41:00;;;;;;;30.05;2.70;;;;;;;2.79;100.00;102680.50;4999281;28;20540;-44
2022/01/20 06:43:26;;;;;;;28.08;2.42;;;;;;;2.76;100.00;102682.44;5000400;28;20128;-44
2022/01/20 06:45:52;;;;;;;31.40;3.25;;;;;;;2.77;100.00;102685.00;5018191;28;20048;-44
2022/01/20 06:48:17;;;;;;;17.27;2.30;;;;;;;2.82;100.00;102686.56;5011909;28;20029;-45
2022/01/20 06:50:42;;;;;;;34.83;3.40;;;;;;;2.79;100.00;102692.84;5002779;28;20507;-47
2022/01/20 06:53:08;;;;;;;29.50;3.22;;;;;;;2.79;100.00;102701.63;5001321;28;20125;-43
2022/01/20 06:55:34;;;;;;;17.02;1.83;;;;;;;2.75;100.00;102700.06;5004246;28;20029;-46
2022/01/20 06:58:00;;;;;;;22.70;2.60;;;;;;;2.77;100.00;102714.03;5020182;28;20056;-44
2022/01/20 07:00:26;;;;;;;16.90;2.17;;;;;;;2.79;100.00;102714.81;5017677;28;20041;-44
2022/01/20 07:02:52;;;;;;;22.67;1.83;;;;;;;2.79;100.00;102714.81;5017480;28;20034;-46
2022/01/20 07:05:20;;;;;;;28.63;2.90;;;;;;;2.84;100.00;102717.28;5000030;28;20030;-43
2022/01/20 07:07:45;;;;;;;27.30;2.72;;;;;;;2.75;100.00;102707.09;5000634;28;20037;-46
2022/01/20 07:10:13;;;;;;;27.80;2.83;;;;;;;2.73;100.00;102714.22;5013675;28;20022;-44
2022/01/20 07:12:41;;;;;;;21.30;2.30;;;;;;;2.70;100.00;102716.97;5018364;28;20037;-45
2022/01/20 07:15:07;;;;;;;23.80;2.80;;;;;;;2.71;100.00;102726.63;5021517;28;20251;-45
2022/01/20 07:17:32;;;;;;;24.05;3.28;;;;;;;2.67;100.00;102709.22;5013274;28;20109;-46
2022/01/20 07:19:57;;;;;;;21.00;2.45;;;;;;;2.74;100.00;102737.03;5009928;28;20028;-45
2022/01/20 07:22:23;;;;;;;20.83;3.05;;;;;;;2.71;100.00;102745.94;5015860;28;20451;-46
2022/01/20 07:24:48;;;;;;;18.08;2.15;;;;;;;2.68;100.00;102750.47;5014648;28;20025;-45
2022/01/20 07:27:15;;;;;;;18.73;2.22;;;;;;;2.68;100.00;102742.56;4999874;28;20514;-43
2022/01/20 07:29:40;;;;;;;28.52;3.13;;;;;;;2.66;100.00;102741.78;5008879;28;20084;-44
2022/01/20 07:32:06;;;;;;;16.83;2.00;;;;;;;2.64;100.00;102755.03;5002942;28;20025;-46
2022/01/20 07:34:33;;;;;;;22.85;2.58;;;;;;;2.62;100.00;102754.22;5000115;28;20101;-44
2022/01/20 07:36:59;;;;;;;14.73;1.77;;;;;;;2.67;100.00;102751.41;4991975;28;20021;-45
2022/01/20 07:39:24;;;;;;;16.15;2.03;;;;;;;2.67;100.00;102751.41;5004190;28;20025;-45
2022/01/20 07:41:49;;;;;;;21.52;2.25;;;;;;;2.68;100.00;102758.41;4996704;28;20037;-46
2022/01/20 07:44:17;;;;;;;28.92;2.78;;;;;;;2.73;100.00;102761.69;4998765;28;20285;-43
2022/01/20 07:46:43;;;;;;;21.08;2.42;;;;;;;2.76;100.00;102757.16;4998780;28;20209;-45
2022/01/20 07:49:08;;;;;;;19.25;2.25;;;;;;;2.78;98.85;102757.97;4999444;28;20025;-44
2022/01/20 07:51:34;;;;;;;23.38;2.45;;;;;;;2.77;100.00;102761.53;4982245;28;20037;-44
2022/01/20 07:53:59;;;;;;;19.67;1.88;;;;;;;2.76;99.86;102756.31;4999531;28;20044;-45
2022/01/20 07:56:24;;;;;;;14.48;2.00;;;;;;;2.74;99.80;102763.44;4997549;28;20449;-45
2022/01/20 07:58:49;;;;;;;17.38;2.38;;;;;;;2.77;99.65;102766.81;5001541;28;20072;-45
2022/01/20 08:01:15;;;;;;;16.30;2.10;;;;;;;2.78;100.00;102770.28;5017953;28;20056;-45
2022/01/20 08:03:40;;;;;;;15.27;2.08;;;;;;;2.77;99.06;102773.88;5019374;28;20529;-44
2022/01/20 08:06:05;;;;;;;19.50;2.45;;;;;;;2.77;100.00;102780.00;5020190;28;20030;-44
2022/01/20 08:08:31;;;;;;;26.98;2.58;;;;;;;2.77;100.00;102784.41;5018763;28;20040;-47
2022/01/20 08:10:56;;;;;;;17.60;1.95;;;;;;;2.75;100.00;102796.78;5017278;28;20108;-46
2022/01/20 08:13:21;;;;;;;14.05;2.05;;;;;;;2.72;100.00;102796.94;5018394;28;20032;-45
2022/01/20 08:15:47;;;;;;;17.55;2.03;;;;;;;2.73;100.00;102793.38;5019343;28;20022;-45
2022/01/20 08:18:12;;;;;;;22.25;2.33;;;;;;;2.75;100.00;102805.59;5017534;28;20026;-45
2022/01/20 08:20:38;;;;;;;16.83;2.00;;;;;;;2.75;100.00;102802.06;5017857;28;20040;-46
2022/01/20 08:23:03;;;;;;;22.00;2.60;;;;;;;2.76;100.00;102809.94;5019082;28;20021;-45
2022/01/20 08:25:28;;;;;;;21.35;2.17;;;;;;;2.75;100.00;102807.34;5017515;28;20474;-46
2022/01/20 08:27:54;;;;;;;22.02;2.60;;;;;;;2.77;100.00;102810.81;5017621;28;20104;-47
2022/01/20 08:30:21;;;;;;;18.65;2.10;;;;;;;2.76;100.00;102822.28;5000097;28;20516;-46
2022/01/20 08:32:47;;;;;;;20.67;2.35;;;;;;;2.76;100.00;102823.13;4999702;28;20168;-44
2022/01/20 08:35:13;;;;;;;23.98;2.97;;;;;;;2.76;100.00;102819.63;4998176;28;20112;-47
2022/01/20 08:37:43;;;;;;;20.10;2.22;;;;;;;2.76;100.00;102819.63;4998938;28;20112;-46
2022/01/20 08:40:13;;;;;;;25.35;2.15;;;;;;;2.75;100.00;102815.25;4997730;28;20026;-46
2022/01/20 08:42:42;;;;;;;18.83;2.42;;;;;;;2.78;100.00;102828.34;4995908;28;20056;-45
2022/01/20 08:45:10;;;;;;;25.10;2.58;;;;;;;2.76;100.00;102835.47;4998734;28;20148;-49
2022/01/20 08:47:36;;;;;;;22.10;2.38;;;;;;;2.81;100.00;102838.78;4998928;28;20022;-46
2022/01/20 08:50:03;;;;;;;20.33;2.42;;;;;;;2.78;100.00;102845.06;5001163;28;20037;-45
2022/01/20 08:52:29;;;;;;;16.40;2.10;;;;;;;2.77;100.00;102843.31;4997318;28;20405;-45
2022/01/20 08:54:57;;;;;;;13.07;1.95;;;;;;;2.77;100.00;102856.50;4998309;28;20034;-48
2022/01/20 08:57:23;;;;;;;15.80;1.70;;;;;;;2.77;100.00;102848.59;4997148;28;20060;-45
2022/01/20 08:59:49;;;;;;;21.52;2.10;;;;;;;2.79;100.00;102848.53;4999753;28;20129;-46
2022/01/20 09:02:14;;;;;;;26.38;1.98;;;;;;;2.78;100.00;102850.31;4998710;28;20445;-45
2022/01/20 09:04:40;;;;;;;14.20;1.73;;;;;;;2.79;100.00;102859.09;4999532;28;20859;-46
2022/01/20 09:07:05;;;;;;;17.67;2.05;;;;;;;2.84;100.00;102874.75;4999729;28;20412;-49
2022/01/20 09:09:33;;;;;;;17.92;2.15;;;;;;;2.85;100.00;102861.50;4998781;28;20034;-46
2022/01/20 09:12:17;;;;;;;20.15;2.63;;;;;;;2.85;100.00;102860.63;4999784;28;20221;-48
2022/01/20 09:17:30;;;;;;;19.42;2.13;;;;;;;2.89;100.00;102868.34;5002023;28;20037;-46
2022/01/20 09:19:57;;;;;;;20.55;2.63;;;;;;;2.85;100.00;102877.34;5003119;28;20121;-47
2022/01/20 09:22:24;;;;;;;13.70;1.83;;;;;;;2.86;100.00;102868.47;5001854;28;20468;-45
2022/01/20 09:24:49;;;;;;;12.02;1.88;;;;;;;2.83;100.00;102870.38;5001160;28;20464;-48
2022/01/20 09:27:15;;;;;;;13.75;1.98;;;;;;;2.78;100.00;102871.44;5000881;28;20109;-46
2022/01/20 09:29:41;;;;;;;17.48;2.17;;;;;;;2.66;100.00;102869.25;5002355;28;20059;-46
2022/01/20 09:32:09;;;;;;;12.38;2.15;;;;;;;2.63;100.00;102869.41;5002996;28;20048;-47
2022/01/20 09:34:34;;;;;;;23.27;2.72;;;;;;;2.66;100.00;102865.75;5002736;28;20021;-47
2022/01/20 09:37:00;;;;;;;24.77;6.20;;;;;;;2.83;100.00;102862.47;5002530;28;20060;-46
2022/01/20 09:39:25;;;;;;;20.98;2.53;;;;;;;2.96;100.00;102858.41;5001706;28;20045;-52
2022/01/20 09:41:51;;;;;;;19.08;2.53;;;;;;;3.08;100.00;102847.34;4999129;28;20029;-49
2022/01/20 09:44:17;;;;;;;23.40;2.30;;;;;;;3.18;100.00;102858.41;5001968;28;20029;-46
2022/01/20 09:46:44;;;;;;;18.33;2.10;;;;;;;3.22;100.00;102867.91;5001993;28;20017;-47
2022/01/20 09:49:11;;;;;;;19.30;2.53;;;;;;;3.22;100.00;102875.81;5001824;28;20571;-48
2022/01/20 09:51:37;;;;;;;14.90;2.10;;;;;;;3.18;100.00;102884.81;5001874;28;20040;-46
2022/01/20 09:54:04;;;;;;;18.30;2.22;;;;;;;3.08;100.00;102886.09;5001975;28;20519;-46
2022/01/20 09:56:29;;;;;;;13.50;2.03;;;;;;;2.94;100.00;102895.44;4998775;28;20030;-49
2022/01/20 09:58:54;;;;;;;14.68;2.22;;;;;;;2.86;100.00;102897.50;5001435;28;20014;-49
2022/01/20 10:01:41;;;;;;;16.70;2.30;;;;;;;2.87;100.00;102904.50;5000688;28;20310;-46
2022/01/20 10:04:20;;;;;;;15.63;2.30;;;;;;;2.90;100.00;102920.25;5002456;28;20129;-45
2022/01/20 10:07:06;;;;;;;18.17;2.15;;;;;;;2.94;100.00;102921.81;5001674;28;20036;-45
2022/01/20 10:09:35;;;;;;;22.35;2.58;;;;;;;2.97;100.00;102915.53;5001173;28;20038;-45
2022/01/20 10:12:02;;;;;;;18.98;2.17;;;;;;;3.00;100.00;102926.00;4999629;28;20037;-48
2022/01/20 10:14:57;;;;;;;18.17;2.47;;;;;;;3.03;100.00;102915.31;5001361;28;20488;-48
2022/01/20 10:17:25;;;;;;;19.17;2.22;;;;;;;3.10;100.00;102929.97;5001342;28;20029;-48
2022/01/20 10:20:00;;;;;;;22.30;2.42;;;;;;;3.15;100.00;102927.16;4997957;28;20029;-48
2022/01/20 10:22:26;;;;;;;16.75;2.50;;;;;;;3.21;100.00;102936.63;5000303;28;20026;-48
2022/01/20 10:24:57;;;;;;;13.73;1.88;;;;;;;3.27;100.00;102928.47;5000591;28;20418;-45
2022/01/20 10:27:22;;;;;;;20.55;2.45;;;;;;;3.35;100.00;102942.22;4999937;28;20072;-47
2022/01/20 10:30:06;;;;;;;16.80;2.42;;;;;;;3.54;100.00;102944.97;5001779;28;20795;-50
2022/01/20 10:32:46;;;;;;;18.55;2.22;;;;;;;3.83;100.00;102941.09;5000696;28;20034;-46
2022/01/20 10:35:13;;;;;;;16.95;2.25;;;;;;;4.15;100.00;102948.56;5001038;28;20033;-47
2022/01/20 10:37:40;;;;;;;13.73;1.95;;;;;;;4.30;98.51;102951.38;5000597;28;20045;-45
2022/01/20 10:40:12;;;;;;;17.95;2.00;;;;;;;4.29;95.24;102948.81;5001126;28;20046;-47
2022/01/20 10:42:40;;;;;;;18.02;2.20;;;;;;;4.26;95.76;102957.75;5000950;28;20049;-45
2022/01/20 10:45:07;;;;;;;22.27;2.78;;;;;;;4.19;94.90;102966.00;5002064;28;20125;-45
2022/01/20 10:47:36;;;;;;;19.58;2.15;;;;;;;4.08;94.03;102959.41;5000349;28;20174;-45
2022/01/20 10:50:31;;;;;;;16.08;1.98;;;;;;;4.14;96.08;102962.69;5001592;28;20042;-44
2022/01/20 10:52:57;;;;;;;15.93;1.55;;;;;;;4.12;92.58;102957.47;4998746;28;20049;-47
2022/01/20 10:55:30;;;;;;;17.42;2.10;;;;;;;4.15;93.36;102957.34;4998524;28;20444;-45
2022/01/20 10:58:07;;;;;;;17.77;2.35;;;;;;;4.21;89.66;102950.91;4998937;28;20073;-46
2022/01/20 11:00:41;;;;;;;23.48;2.30;;;;;;;4.29;92.17;102952.31;5000481;28;20212;-45
2022/01/20 11:03:06;;;;;;;13.68;1.90;;;;;;;4.31;92.58;102952.22;5000545;28;20464;-45
2022/01/20 11:05:33;;;;;;;16.50;2.03;;;;;;;4.35;89.93;102961.75;5000361;28;20316;-47
2022/01/20 11:07:59;;;;;;;20.38;2.88;;;;;;;4.27;88.24;102967.38;5000968;28;20040;-45
2022/01/20 11:10:25;;;;;;;14.48;2.10;;;;;;;4.27;88.64;102961.25;4999837;28;20033;-46
2022/01/20 11:12:50;;;;;;;13.43;1.77;;;;;;;4.16;89.54;102961.72;5000038;28;20528;-44
2022/01/20 11:15:19;;;;;;;16.20;1.77;;;;;;;4.15;90.86;102957.34;4999464;28;20037;-44
2022/01/20 11:17:51;;;;;;;20.42;2.30;;;;;;;4.11;nan;102961.06;5007336;28;20266;-44
2022/01/20 11:20:21;;;;;;;21.83;2.20;;;;;;;4.28;90.62;102961.19;5013492;28;20087;-46
2022/01/20 11:22:51;;;;;;;14.88;1.77;;;;;;;4.55;88.67;102960.00;5000829;28;20029;-48
2022/01/20 11:25:21;;;;;;;13.65;2.28;;;;;;;4.67;89.22;102959.47;4998987;28;20037;-46
2022/01/20 11:27:46;;;;;;;19.00;2.10;;;;;;;4.72;87.65;102962.75;4999787;28;20061;-44
2022/01/20 11:30:21;;;;;;;13.27;1.90;;;;;;;4.67;87.75;102954.16;4999624;28;20081;-46
2022/01/20 11:33:04;;;;;;;14.25;2.03;;;;;;;4.65;88.93;102956.00;5000092;28;20022;-45
2022/01/20 11:35:47;;;;;;;14.65;2.00;;;;;;;4.67;88.65;102948.88;4999875;28;20021;-48
2022/01/20 11:38:18;;;;;;;13.15;1.75;;;;;;;4.69;89.18;102946.16;4998884;28;20022;-47
2022/01/20 11:41:04;;;;;;;15.10;2.28;;;;;;;4.67;90.63;102940.94;4999459;28;20417;-44
2022/01/20 11:43:39;;;;;;;17.45;2.45;;;;;;;4.58;86.68;102949.28;4998735;28;20030;-43
2022/01/20 11:46:07;;;;;;;18.92;2.67;;;;;;;4.51;86.82;102938.09;5000614;28;20040;-44
2022/01/20 11:48:32;;;;;;;16.25;2.42;;;;;;;4.45;83.87;102939.25;4998474;28;20038;-54
2022/01/20 11:51:06;;;;;;;15.60;1.55;;;;;;;4.43;84.79;102940.25;4999380;28;20037;-48
2022/01/20 11:53:33;;;;;;;15.95;1.92;;;;;;;4.41;85.96;102947.41;4999014;28;20033;-48
2022/01/20 11:55:58;;;;;;;22.88;1.95;;;;;;;4.33;84.31;102945.13;4998776;28;20021;-46
2022/01/20 11:58:25;;;;;;;14.52;2.20;;;;;;;4.33;86.17;102945.13;4998618;28;20021;-48
2022/01/20 12:01:02;;;;;;;15.50;1.67;;;;;;;4.33;87.08;102934.53;4999518;28;20029;-48
2022/01/20 12:03:29;;;;;;;16.65;2.05;;;;;;;4.40;86.94;102941.25;4998068;28;20041;-47
2022/01/20 12:05:59;;;;;;;13.18;1.90;;;;;;;4.58;87.88;102938.69;4999323;28;20511;-46
2022/01/20 12:08:24;;;;;;;19.48;2.10;;;;;;;4.84;86.90;102933.06;4999240;28;20370;-49
2022/01/20 12:11:08;;;;;;;14.40;1.90;;;;;;;5.29;82.17;102938.00;4999228;28;20030;-45
2022/01/20 12:13:45;;;;;;;19.85;2.38;;;;;;;5.33;79.38;102921.00;4999949;28;20045;-43
2022/01/20 12:16:18;;;;;;;11.23;1.73;;;;;;;5.22;77.65;102925.06;4999062;28;20026;-44
2022/01/20 12:18:51;;;;;;;22.15;1.88;;;;;;;4.99;76.12;102912.94;4999835;28;20028;-43
2022/01/20 12:21:17;;;;;;;11.13;1.50;;;;;;;4.86;77.34;102923.25;4998746;28;20057;-44
2022/01/20 12:23:43;;;;;;;12.55;1.90;;;;;;;4.77;80.66;102913.09;4999825;28;20022;-44